Time;durP1;ratioP1;P1;durP2;ratioP2;P2;SDS_P1;SDS_P2;PMS_P1;PMS_P2;Temp;Humidity;BMP_temperature;BMP_pressure;BME280_temperature;BME280_humidity;BME280_pressure;Samples;Min_cycle;Max_cycle;Signal;HPM_P1;HPM_P2
2024/01/18 00:01:32;;;;;;;3.63;0.90;;;1.50;99.90;;;;;;5041513;28;20421;-72
2024/01/18 00:03:59;;;;;;;0.65;0.60;;;1.50;99.90;;;;;;5040542;28;20037;-72
2024/01/18 00:06:24;;;;;;;0.68;0.68;;;1.40;99.90;;;;;;5042781;28;20061;-72
2024/01/18 00:08:50;;;;;;;0.57;0.57;;;1.40;99.90;;;;;;5038624;28;20032;-72
2024/01/18 00:11:16;;;;;;;0.32;0.30;;;1.40;99.90;;;;;;5043744;28;20029;-72
2024/01/18 00:13:43;;;;;;;0.50;0.50;;;1.40;99.90;;;;;;5043625;28;20690;-72
2024/01/18 00:16:09;;;;;;;0.28;0.28;;;1.40;99.90;;;;;;5041058;28;20037;-71
2024/01/18 00:18:34;;;;;;;0.80;0.43;;;1.40;99.90;;;;;;5045309;28;20051;-71
2024/01/18 00:21:00;;;;;;;0.13;0.13;;;1.40;99.90;;;;;;5041280;28;20524;-71
2024/01/18 00:23:26;;;;;;;6.22;1.40;;;1.40;99.90;;;;;;5034613;28;20067;-71
2024/01/18 00:25:52;;;;;;;1.20;0.90;;;1.30;99.90;;;;;;5040058;28;20041;-71
2024/01/18 00:28:17;;;;;;;3.10;0.65;;;1.30;99.90;;;;;;5041487;28;20083;-71
2024/01/18 00:30:43;;;;;;;1.50;0.98;;;1.30;99.90;;;;;;5040004;28;21458;-73
2024/01/18 00:33:09;;;;;;;0.35;0.30;;;1.30;99.90;;;;;;5043230;28;20167;-72
2024/01/18 00:35:35;;;;;;;0.95;0.65;;;1.30;99.90;;;;;;5038845;28;20032;-71
2024/01/18 00:38:01;;;;;;;0.98;0.65;;;1.20;99.90;;;;;;5041097;28;20071;-74
2024/01/18 00:40:26;;;;;;;0.22;0.22;;;1.20;99.90;;;;;;5041113;28;20126;-71
2024/01/18 00:42:52;;;;;;;0.30;0.30;;;1.20;99.90;;;;;;5037494;28;20534;-71
2024/01/18 00:45:17;;;;;;;1.80;1.05;;;1.10;99.90;;;;;;5043311;28;20021;-71
2024/01/18 00:47:44;;;;;;;3.88;0.82;;;1.10;99.90;;;;;;5041729;28;20029;-72
2024/01/18 00:50:10;;;;;;;1.38;0.60;;;1.10;99.90;;;;;;5034226;28;20033;-72
2024/01/18 00:52:36;;;;;;;1.38;0.82;;;1.00;99.90;;;;;;5037995;28;20025;-72
2024/01/18 00:55:01;;;;;;;0.43;0.43;;;1.00;99.90;;;;;;5039736;28;21707;-71
2024/01/18 00:57:28;;;;;;;1.92;0.95;;;1.00;99.90;;;;;;5036870;28;20051;-72
2024/01/18 00:59:54;;;;;;;1.25;0.47;;;0.90;99.90;;;;;;5039107;28;20530;-72
2024/01/18 01:02:20;;;;;;;2.17;0.57;;;0.90;99.90;;;;;;5036821;28;20029;-72
2024/01/18 01:04:46;;;;;;;3.78;1.98;;;0.90;99.90;;;;;;5037012;28;20032;-71
2024/01/18 01:07:11;;;;;;;0.57;0.57;;;0.80;99.90;;;;;;5039670;28;20029;-72
2024/01/18 01:09:37;;;;;;;0.68;0.63;;;0.80;99.90;;;;;;5036489;28;20661;-72
2024/01/18 01:12:03;;;;;;;0.40;0.40;;;0.80;99.90;;;;;;5037935;28;20394;-72
2024/01/18 01:14:29;;;;;;;4.95;1.15;;;0.70;99.90;;;;;;5040508;28;20059;-72
2024/01/18 01:16:55;;;;;;;3.05;0.95;;;0.70;99.90;;;;;;5039711;28;20041;-72
2024/01/18 01:19:20;;;;;;;0.85;0.68;;;0.70;99.90;;;;;;5038929;28;20036;-72
2024/01/18 01:21:46;;;;;;;2.67;0.35;;;0.60;99.90;;;;;;5037016;28;20029;-72
2024/01/18 01:24:12;;;;;;;0.65;0.65;;;0.50;99.90;;;;;;5037040;28;20041;-72
2024/01/18 01:26:37;;;;;;;0.80;0.38;;;0.50;99.90;;;;;;5039981;28;20070;-72
2024/01/18 01:29:04;;;;;;;0.60;0.60;;;0.50;99.90;;;;;;5038779;28;20555;-71
2024/01/18 01:31:30;;;;;;;0.22;0.22;;;0.40;99.90;;;;;;5043133;28;20045;-72
2024/01/18 01:33:56;;;;;;;0.28;0.28;;;0.40;99.90;;;;;;5051004;28;20040;-70
2024/01/18 01:36:21;;;;;;;0.73;0.65;;;0.30;99.90;;;;;;5045306;28;20028;-71
2024/01/18 01:38:47;;;;;;;0.32;0.32;;;0.30;99.90;;;;;;5065911;28;20045;-72
2024/01/18 01:41:13;;;;;;;0.32;0.32;;;0.30;99.90;;;;;;5043091;28;20033;-72
2024/01/18 01:43:59;;;;;;;0.40;0.40;;;0.30;99.80;;;;;;5036033;28;20029;-71
2024/01/18 01:46:25;;;;;;;0.43;0.43;;;0.30;99.70;;;;;;5045141;28;20762;-70
2024/01/18 01:49:00;;;;;;;1.05;0.60;;;0.30;98.80;;;;;;5037443;28;20036;-70
2024/01/18 01:51:36;;;;;;;0.20;0.20;;;0.30;98.80;;;;;;5039581;28;20048;-72
2024/01/18 01:54:04;;;;;;;0.10;0.10;;;0.20;98.70;;;;;;5038545;28;20052;-72
2024/01/18 01:56:31;;;;;;;2.97;0.98;;;0.20;98.50;;;;;;5032989;28;20196;-71
2024/01/18 01:58:57;;;;;;;0.10;0.10;;;0.10;98.30;;;;;;5035365;28;20074;-71
2024/01/18 02:01:22;;;;;;;0.63;0.63;;;0.10;98.20;;;;;;5039466;28;20021;-72
2024/01/18 02:03:48;;;;;;;0.65;0.43;;;0.10;98.10;;;;;;5036902;28;20033;-71
2024/01/18 02:06:16;;;;;;;1.02;0.93;;;0.10;98.20;;;;;;5039039;28;20115;-72
2024/01/18 02:08:43;;;;;;;0.52;0.43;;;0.00;98.60;;;;;;5038321;28;20044;-71
2024/01/18 02:11:10;;;;;;;0.43;0.43;;;0.00;99.00;;;;;;5034924;28;20127;-71
2024/01/18 02:13:38;;;;;;;1.23;0.85;;;-0.20;99.50;;;;;;5039078;28;20037;-71
2024/01/18 02:16:04;;;;;;;0.55;0.20;;;-0.20;99.70;;;;;;5036167;28;20047;-72
2024/01/18 02:18:30;;;;;;;0.68;0.55;;;-0.30;99.80;;;;;;5040579;28;20187;-70
2024/01/18 02:20:56;;;;;;;1.25;0.70;;;-0.40;99.80;;;;;;5040582;28;20124;-72
2024/01/18 02:23:22;;;;;;;0.25;0.25;;;-0.40;99.90;;;;;;5031933;28;20040;-71
2024/01/18 02:25:48;;;;;;;0.20;0.20;;;-0.50;99.80;;;;;;5038235;28;20480;-72
2024/01/18 02:28:16;;;;;;;0.20;0.20;;;-0.60;99.50;;;;;;5036351;28;20094;-72
2024/01/18 02:30:41;;;;;;;0.47;0.47;;;-0.50;99.30;;;;;;5030496;28;20082;-70
2024/01/18 02:33:07;;;;;;;0.57;0.57;;;-0.60;98.90;;;;;;5037984;28;20037;-71
2024/01/18 02:35:33;;;;;;;0.93;0.47;;;-0.60;98.80;;;;;;5039252;28;20059;-70
2024/01/18 02:37:59;;;;;;;0.73;0.73;;;-0.60;98.60;;;;;;5038436;28;20120;-71
2024/01/18 02:40:25;;;;;;;1.73;0.60;;;-0.50;98.50;;;;;;5040229;28;20035;-72
2024/01/18 02:42:51;;;;;;;0.90;0.68;;;-0.50;98.60;;;;;;5037164;28;20082;-71
2024/01/18 02:45:17;;;;;;;3.65;0.85;;;-0.50;98.50;;;;;;5043362;28;20037;-71
2024/01/18 02:47:43;;;;;;;0.10;0.10;;;-0.40;98.20;;;;;;5043162;28;20499;-72
2024/01/18 02:50:09;;;;;;;0.00;0.00;;;-0.40;97.70;;;;;;5033099;28;20025;-71
2024/01/18 02:52:37;;;;;;;1.58;0.35;;;-0.40;97.70;;;;;;5036751;28;20052;-71
2024/01/18 02:55:05;;;;;;;0.67;0.57;;;-0.40;97.80;;;;;;5041536;28;20064;-72
2024/01/18 02:57:31;;;;;;;1.08;0.98;;;-0.50;98.10;;;;;;5038003;28;21109;-72
2024/01/18 02:59:56;;;;;;;0.20;0.20;;;-0.50;97.90;;;;;;5039850;28;20102;-72
2024/01/18 03:02:22;;;;;;;1.13;0.90;;;-0.60;97.90;;;;;;5038007;28;20043;-70
2024/01/18 03:04:48;;;;;;;0.35;0.30;;;-0.60;97.30;;;;;;5037840;28;20029;-70
2024/01/18 03:07:13;;;;;;;0.17;0.17;;;-0.60;97.50;;;;;;5041782;28;20219;-71
2024/01/18 03:09:39;;;;;;;0.98;0.93;;;-0.70;97.10;;;;;;5036478;28;20039;-71
2024/01/18 03:12:04;;;;;;;0.25;0.15;;;-0.70;97.30;;;;;;5039527;28;20037;-73
2024/01/18 03:14:45;;;;;;;0.32;0.13;;;-0.80;97.30;;;;;;5042287;28;20067;-72
2024/01/18 03:17:11;;;;;;;1.15;0.30;;;-0.80;96.90;;;;;;5037808;28;20029;-71
2024/01/18 03:19:37;;;;;;;0.20;0.20;;;-0.80;96.70;;;;;;5041648;28;20074;-71
2024/01/18 03:22:03;;;;;;;1.23;0.63;;;-0.90;96.80;;;;;;5041765;28;20041;-71
2024/01/18 03:24:29;;;;;;;0.20;0.20;;;-1.00;96.80;;;;;;5036448;28;20740;-72
2024/01/18 03:26:54;;;;;;;0.45;0.45;;;-1.00;97.10;;;;;;5044259;28;20061;-72
2024/01/18 03:29:20;;;;;;;0.10;0.10;;;-1.10;97.10;;;;;;5040193;28;20120;-71
2024/01/18 03:31:46;;;;;;;0.28;0.28;;;-1.20;97.10;;;;;;5039376;28;20045;-71
2024/01/18 03:34:12;;;;;;;1.90;1.77;;;-1.20;96.90;;;;;;5045269;28;20036;-71
2024/01/18 03:36:38;;;;;;;2.08;1.00;;;-1.20;96.80;;;;;;5039509;28;20041;-71
2024/01/18 03:39:06;;;;;;;0.28;0.28;;;-1.30;96.90;;;;;;5040713;28;20061;-72
2024/01/18 03:41:31;;;;;;;4.30;1.05;;;-1.40;96.90;;;;;;5044526;28;20116;-72
2024/01/18 03:43:57;;;;;;;0.00;0.00;;;-1.50;96.90;;;;;;5037679;28;20397;-72
2024/01/18 03:46:23;;;;;;;0.40;0.40;;;-1.50;96.70;;;;;;5045736;28;20036;-72
2024/01/18 03:48:48;;;;;;;0.40;0.40;;;-1.60;96.80;;;;;;5043237;28;20071;-71
2024/01/18 03:51:14;;;;;;;0.00;0.00;;;-1.60;96.70;;;;;;5037641;28;20464;-72
2024/01/18 03:53:43;;;;;;;0.85;0.70;;;-1.60;96.60;;;;;;5042930;28;20513;-71
2024/01/18 03:56:12;;;;;;;0.00;0.00;;;-1.60;96.50;;;;;;5039002;28;20727;-71
2024/01/18 03:58:38;;;;;;;0.40;0.40;;;-1.70;96.80;;;;;;5040596;28;20848;-71
2024/01/18 04:01:04;;;;;;;0.45;0.45;;;-1.70;96.60;;;;;;5039104;28;20058;-70
2024/01/18 04:03:30;;;;;;;0.47;0.47;;;-1.80;96.80;;;;;;5038252;28;20096;-72
2024/01/18 04:05:55;;;;;;;2.00;0.35;;;-1.80;96.60;;;;;;5043420;28;20110;-72
2024/01/18 04:08:21;;;;;;;0.00;0.00;;;-1.70;96.30;;;;;;5042647;28;20595;-71
2024/01/18 04:10:47;;;;;;;0.30;0.30;;;-1.80;96.40;;;;;;5037961;28;20251;-71
2024/01/18 04:13:12;;;;;;;1.10;0.93;;;-1.80;96.50;;;;;;5044350;28;20036;-71
2024/01/18 04:15:38;;;;;;;0.30;0.30;;;-1.90;96.70;;;;;;5049262;28;20024;-70
2024/01/18 04:18:04;;;;;;;0.20;0.20;;;-1.90;96.60;;;;;;5044998;28;20031;-71
2024/01/18 04:20:30;;;;;;;0.93;0.50;;;-1.90;96.50;;;;;;5049552;28;20481;-71
2024/01/18 04:22:56;;;;;;;0.10;0.10;;;-1.90;96.30;;;;;;5048755;28;20039;-72
2024/01/18 04:25:21;;;;;;;0.85;0.85;;;-1.80;96.50;;;;;;5044754;28;20033;-72
2024/01/18 04:27:47;;;;;;;0.63;0.30;;;-1.90;96.50;;;;;;5046911;28;20040;-72
2024/01/18 04:30:13;;;;;;;0.70;0.20;;;-1.90;96.60;;;;;;5043314;28;20107;-71
2024/01/18 04:32:39;;;;;;;0.52;0.52;;;-2.00;96.90;;;;;;5066245;28;20021;-72
2024/01/18 04:35:05;;;;;;;0.30;0.30;;;-2.10;97.20;;;;;;5059992;28;20048;-70
2024/01/18 04:37:31;;;;;;;0.15;0.15;;;-2.10;97.30;;;;;;5038812;28;20097;-71
2024/01/18 04:39:57;;;;;;;0.35;0.30;;;-2.20;97.40;;;;;;5042656;28;20500;-72
2024/01/18 04:42:22;;;;;;;0.98;0.73;;;-2.20;97.70;;;;;;5038576;28;20032;-71
2024/01/18 04:44:48;;;;;;;0.30;0.30;;;-2.30;97.90;;;;;;5036683;28;20056;-72
2024/01/18 04:47:14;;;;;;;4.28;0.55;;;-2.30;97.90;;;;;;5044358;28;20052;-72
2024/01/18 04:49:39;;;;;;;0.40;0.40;;;-2.20;97.90;;;;;;5040227;28;20045;-71
2024/01/18 04:52:05;;;;;;;0.45;0.45;;;-2.10;97.80;;;;;;5041427;28;20138;-72
2024/01/18 04:54:32;;;;;;;0.80;0.77;;;-2.20;97.70;;;;;;5042809;28;20128;-72
2024/01/18 04:56:58;;;;;;;2.17;0.60;;;-2.20;97.90;;;;;;5040727;28;20071;-71
2024/01/18 04:59:24;;;;;;;0.63;0.63;;;-2.20;98.10;;;;;;5042903;28;20086;-70
2024/01/18 05:01:50;;;;;;;0.38;0.38;;;-2.30;98.20;;;;;;5034369;28;20029;-73
2024/01/18 05:04:15;;;;;;;0.75;0.75;;;-2.30;98.10;;;;;;5029375;28;20032;-72
2024/01/18 05:06:41;;;;;;;0.60;0.60;;;-2.30;98.40;;;;;;5039149;28;20043;-71
2024/01/18 05:09:09;;;;;;;1.08;1.08;;;-2.30;98.40;;;;;;5038403;28;20063;-71
2024/01/18 05:11:35;;;;;;;0.10;0.10;;;-2.30;98.40;;;;;;5025650;28;20111;-72
2024/01/18 05:14:01;;;;;;;0.45;0.40;;;-2.40;98.50;;;;;;5042215;28;20111;-72
2024/01/18 05:16:26;;;;;;;1.33;0.35;;;-2.40;98.60;;;;;;5040103;28;20120;-71
2024/01/18 05:18:52;;;;;;;1.40;0.95;;;-2.50;98.50;;;;;;5038335;28;20021;-72
2024/01/18 05:21:18;;;;;;;0.00;0.00;;;-2.50;98.70;;;;;;5042706;28;20033;-71
2024/01/18 05:23:43;;;;;;;0.70;0.70;;;-2.50;98.60;;;;;;5039150;28;20029;-71
2024/01/18 05:26:09;;;;;;;0.20;0.20;;;-2.50;98.70;;;;;;5040858;28;20025;-72
2024/01/18 05:28:35;;;;;;;0.10;0.10;;;-2.50;98.40;;;;;;5041849;28;20029;-72
2024/01/18 05:31:01;;;;;;;0.40;0.40;;;-2.60;98.60;;;;;;5037762;28;20040;-71
2024/01/18 05:33:27;;;;;;;0.10;0.10;;;-2.60;98.60;;;;;;5041325;28;20517;-71
2024/01/18 05:35:53;;;;;;;1.65;0.35;;;-2.60;98.80;;;;;;5039690;28;20028;-71
2024/01/18 05:38:19;;;;;;;0.20;0.20;;;-2.70;98.80;;;;;;5038286;28;20069;-71
2024/01/18 05:40:45;;;;;;;0.77;0.70;;;-2.70;98.60;;;;;;5040397;28;20033;-72
2024/01/18 05:43:11;;;;;;;0.38;0.38;;;-2.70;98.50;;;;;;5037024;28;20029;-70
2024/01/18 05:45:36;;;;;;;0.20;0.20;;;-2.70;98.40;;;;;;5037581;28;20032;-72
2024/01/18 05:48:02;;;;;;;0.50;0.43;;;-2.70;98.50;;;;;;5042796;28;20052;-71
2024/01/18 05:50:28;;;;;;;1.45;0.32;;;-2.70;98.20;;;;;;5036160;28;20408;-71
2024/01/18 05:52:53;;;;;;;0.98;0.70;;;-2.70;98.30;;;;;;5042936;28;20044;-71
2024/01/18 05:55:19;;;;;;;0.20;0.20;;;-2.70;98.60;;;;;;5040191;28;20043;-70
2024/01/18 05:57:45;;;;;;;3.40;1.35;;;-2.80;98.70;;;;;;5036635;28;20094;-70
2024/01/18 06:00:11;;;;;;;1.13;0.50;;;-2.80;99.00;;;;;;5038649;28;20029;-72
2024/01/18 06:02:37;;;;;;;1.75;0.93;;;-2.90;99.20;;;;;;5040301;28;20378;-70
2024/01/18 06:05:03;;;;;;;0.50;0.50;;;-2.90;99.70;;;;;;5033912;28;20028;-71
2024/01/18 06:07:29;;;;;;;0.40;0.20;;;-3.00;99.90;;;;;;5039768;28;20025;-71
2024/01/18 06:09:54;;;;;;;0.25;0.25;;;-3.00;99.90;;;;;;5039975;28;20033;-71
2024/01/18 06:12:20;;;;;;;0.80;0.70;;;-3.00;99.90;;;;;;5042467;28;20112;-71
2024/01/18 06:14:45;;;;;;;0.08;0.08;;;-3.00;99.90;;;;;;5044695;28;20036;-71
2024/01/18 06:17:11;;;;;;;0.43;0.40;;;-3.10;99.90;;;;;;5040719;28;20518;-71
2024/01/18 06:19:37;;;;;;;0.28;0.28;;;-3.10;99.90;;;;;;5031243;28;20031;-72
2024/01/18 06:22:03;;;;;;;1.77;0.85;;;-3.10;99.90;;;;;;5044369;28;20025;-70
2024/01/18 06:24:28;;;;;;;0.98;0.98;;;-3.20;99.90;;;;;;5040113;28;20064;-72
2024/01/18 06:26:55;;;;;;;0.30;0.30;;;-3.20;99.90;;;;;;5039559;28;20040;-71
2024/01/18 06:29:26;;;;;;;0.40;0.40;;;-3.30;99.90;;;;;;5045570;28;20463;-72
2024/01/18 06:31:52;;;;;;;0.25;0.25;;;-3.40;99.90;;;;;;5042374;28;20072;-71
2024/01/18 06:34:18;;;;;;;2.08;1.90;;;-3.40;99.90;;;;;;5045303;28;20025;-71
2024/01/18 06:36:44;;;;;;;0.40;0.40;;;-3.40;99.90;;;;;;5042628;28;20029;-70
2024/01/18 06:39:10;;;;;;;0.20;0.20;;;-3.50;99.90;;;;;;5041860;28;20040;-73
2024/01/18 06:41:36;;;;;;;7.03;1.45;;;-3.50;99.90;;;;;;5044059;28;20032;-71
2024/01/18 06:44:02;;;;;;;0.32;0.20;;;-3.50;99.90;;;;;;5040367;28;20037;-71
2024/01/18 06:46:29;;;;;;;3.63;0.52;;;-3.50;99.90;;;;;;5044697;28;20044;-72
2024/01/18 06:48:57;;;;;;;0.73;0.70;;;-3.50;99.90;;;;;;5044788;28;20063;-72
2024/01/18 06:51:23;;;;;;;0.22;0.22;;;-3.60;99.90;;;;;;5038072;28;21747;-71
2024/01/18 06:53:49;;;;;;;0.50;0.50;;;-3.60;99.90;;;;;;5045546;28;20099;-71
2024/01/18 06:56:14;;;;;;;1.17;0.88;;;-3.60;99.90;;;;;;5045255;28;20021;-71
2024/01/18 06:58:40;;;;;;;0.22;0.20;;;-3.70;99.90;;;;;;5041294;28;20033;-71
2024/01/18 07:01:06;;;;;;;1.35;1.25;;;-3.70;99.90;;;;;;5046754;28;20033;-71
2024/01/18 07:03:35;;;;;;;0.28;0.28;;;-3.70;99.90;;;;;;5035089;28;20278;-72
2024/01/18 07:06:02;;;;;;;0.55;0.55;;;-3.70;99.90;;;;;;5038458;28;20047;-71
2024/01/18 07:08:29;;;;;;;0.20;0.20;;;-3.70;99.90;;;;;;5041927;28;20044;-72
2024/01/18 07:10:55;;;;;;;0.55;0.55;;;-3.70;99.90;;;;;;5035062;28;20037;-71
2024/01/18 07:13:20;;;;;;;0.70;0.70;;;-3.70;99.90;;;;;;5036594;28;20040;-71
2024/01/18 07:15:46;;;;;;;1.13;0.73;;;-3.70;99.90;;;;;;5043461;28;20029;-71
2024/01/18 07:18:12;;;;;;;1.70;1.55;;;-3.70;99.90;;;;;;5037175;28;20434;-70
2024/01/18 07:20:38;;;;;;;3.15;0.65;;;-3.80;99.90;;;;;;5038391;28;20048;-71
2024/01/18 07:23:04;;;;;;;2.42;1.75;;;-3.80;99.90;;;;;;5043515;28;20076;-71
2024/01/18 07:25:29;;;;;;;1.95;1.45;;;-3.80;99.90;;;;;;5039260;28;20045;-71
2024/01/18 07:27:56;;;;;;;1.30;1.20;;;-3.80;99.90;;;;;;5044567;28;20506;-71
2024/01/18 07:30:22;;;;;;;2.50;1.42;;;-3.70;99.90;;;;;;5040940;28;20043;-72
2024/01/18 07:32:48;;;;;;;0.20;0.17;;;-3.70;99.90;;;;;;5040652;28;20029;-71
2024/01/18 07:35:14;;;;;;;1.20;0.75;;;-3.80;99.90;;;;;;5045794;28;20045;-71
2024/01/18 07:37:40;;;;;;;1.30;1.20;;;-3.80;99.90;;;;;;5038047;28;20025;-71
2024/01/18 07:40:06;;;;;;;12.35;3.05;;;-3.70;99.90;;;;;;5037011;28;20040;-71
2024/01/18 07:42:32;;;;;;;0.32;0.32;;;-3.80;99.90;;;;;;5042289;28;20033;-72
2024/01/18 07:44:58;;;;;;;4.22;2.85;;;-3.80;99.90;;;;;;5037900;28;20037;-71
2024/01/18 07:47:24;;;;;;;6.30;2.05;;;-3.70;99.90;;;;;;5040009;28;20079;-71
2024/01/18 07:49:50;;;;;;;1.35;0.88;;;-3.70;99.90;;;;;;5034214;28;20033;-71
2024/01/18 07:52:17;;;;;;;5.43;1.90;;;-3.70;99.90;;;;;;5037823;28;20481;-72
2024/01/18 07:54:43;;;;;;;1.15;1.05;;;-3.70;99.90;;;;;;5048493;28;20083;-70
2024/01/18 07:57:09;;;;;;;0.50;0.50;;;-3.70;99.90;;;;;;5040950;28;20032;-69
2024/01/18 07:59:35;;;;;;;7.32;1.13;;;-3.70;99.90;;;;;;5051028;28;20017;-70
2024/01/18 08:02:01;;;;;;;0.80;0.77;;;-3.70;99.90;;;;;;5056079;28;20068;-71
2024/01/18 08:04:29;;;;;;;2.55;1.92;;;-3.60;99.90;;;;;;5039901;28;20152;-72
2024/01/18 08:06:55;;;;;;;0.80;0.80;;;-3.60;99.90;;;;;;5036592;28;20033;-71
2024/01/18 08:09:21;;;;;;;1.85;1.08;;;-3.60;99.90;;;;;;5034463;28;20508;-72
2024/01/18 08:11:46;;;;;;;0.47;0.47;;;-3.60;99.90;;;;;;5038636;28;20065;-72
2024/01/18 08:14:13;;;;;;;0.60;0.60;;;-3.60;99.90;;;;;;5042237;28;20488;-71
2024/01/18 08:16:38;;;;;;;0.10;0.10;;;-3.60;99.90;;;;;;5031895;28;20025;-71
2024/01/18 08:19:05;;;;;;;3.92;1.95;;;-3.50;99.90;;;;;;5022862;28;20044;-71
2024/01/18 08:21:30;;;;;;;0.32;0.32;;;-3.50;99.90;;;;;;5025267;28;20128;-71
2024/01/18 08:24:00;;;;;;;0.77;0.77;;;-3.50;99.90;;;;;;5034636;28;20043;-71
2024/01/18 08:26:26;;;;;;;0.95;0.95;;;-3.50;99.90;;;;;;5030360;28;20043;-72
2024/01/18 08:28:51;;;;;;;0.57;0.57;;;-3.40;99.90;;;;;;5032666;28;20052;-73
2024/01/18 08:31:17;;;;;;;0.73;0.73;;;-3.40;99.90;;;;;;5032452;28;20408;-71
2024/01/18 08:33:42;;;;;;;0.75;0.50;;;-3.40;99.90;;;;;;5029050;28;20048;-72
2024/01/18 08:36:08;;;;;;;0.70;0.70;;;-3.40;99.90;;;;;;5036506;28;20064;-69
2024/01/18 08:38:34;;;;;;;0.17;0.17;;;-3.30;99.90;;;;;;5029889;28;20635;-70
2024/01/18 08:41:00;;;;;;;0.05;0.05;;;-3.30;99.90;;;;;;5033407;28;20033;-72
2024/01/18 08:43:27;;;;;;;0.10;0.10;;;-3.30;99.90;;;;;;5033469;28;20143;-69
2024/01/18 08:45:54;;;;;;;1.17;0.80;;;-3.20;99.70;;;;;;5029037;28;20048;-71
2024/01/18 08:48:20;;;;;;;0.50;0.50;;;-3.20;99.50;;;;;;5034594;28;20074;-70
2024/01/18 08:50:46;;;;;;;0.65;0.65;;;-3.10;99.50;;;;;;5029634;28;20029;-72
2024/01/18 08:53:12;;;;;;;2.75;1.10;;;-3.10;99.40;;;;;;5027142;28;20780;-74
2024/01/18 08:55:38;;;;;;;0.35;0.22;;;-3.10;99.20;;;;;;5034371;28;20059;-71
2024/01/18 08:58:05;;;;;;;3.30;0.73;;;-3.10;99.30;;;;;;5026877;28;20036;-71
2024/01/18 09:00:30;;;;;;;1.15;1.15;;;-3.00;99.20;;;;;;5028129;28;20056;-70
2024/01/18 09:02:56;;;;;;;0.20;0.20;;;-3.00;99.00;;;;;;5029713;28;20438;-72
2024/01/18 09:05:22;;;;;;;0.03;0.03;;;-3.00;99.10;;;;;;5024510;28;20513;-72
2024/01/18 09:07:48;;;;;;;0.13;0.13;;;-3.00;99.10;;;;;;5029228;28;20044;-74
2024/01/18 09:10:14;;;;;;;0.00;0.00;;;-2.90;99.00;;;;;;5028114;28;20037;-70
2024/01/18 09:12:39;;;;;;;0.35;0.35;;;-2.80;98.80;;;;;;5029283;28;20097;-71
2024/01/18 09:15:05;;;;;;;1.10;0.65;;;-2.70;98.70;;;;;;5033556;28;20048;-73
2024/01/18 09:17:31;;;;;;;0.90;0.40;;;-2.70;98.70;;;;;;5029713;28;22082;-73
2024/01/18 09:19:57;;;;;;;0.70;0.30;;;-2.70;98.60;;;;;;5031465;28;20032;-71
2024/01/18 09:22:23;;;;;;;1.02;0.50;;;-2.60;98.40;;;;;;5034989;28;20044;-74
2024/01/18 09:24:49;;;;;;;0.43;0.43;;;-2.60;98.50;;;;;;5031029;28;20048;-73
2024/01/18 09:27:15;;;;;;;0.52;0.52;;;-2.50;98.30;;;;;;5035915;28;20040;-72
2024/01/18 09:29:41;;;;;;;0.55;0.47;;;-2.40;98.10;;;;;;5036919;28;20028;-73
2024/01/18 09:32:06;;;;;;;0.20;0.20;;;-2.30;98.00;;;;;;5029240;28;20042;-73
2024/01/18 09:34:33;;;;;;;2.63;0.60;;;-2.20;97.80;;;;;;5035905;28;20128;-72
2024/01/18 09:36:59;;;;;;;2.33;1.13;;;-2.20;97.90;;;;;;5035673;28;20057;-72
2024/01/18 09:39:24;;;;;;;6.75;0.47;;;-2.10;97.70;;;;;;5030665;28;20160;-71
2024/01/18 09:41:52;;;;;;;4.68;1.13;;;-2.10;97.70;;;;;;5035069;28;20028;-71
2024/01/18 09:44:25;;;;;;;0.50;0.45;;;-2.00;97.60;;;;;;5028892;28;20043;-72
2024/01/18 09:46:53;;;;;;;1.58;1.48;;;-1.90;97.40;;;;;;5033804;28;20036;-73
2024/01/18 09:49:18;;;;;;;2.65;1.13;;;-1.80;97.20;;;;;;5031364;28;20537;-71
2024/01/18 09:51:45;;;;;;;2.22;1.95;;;-1.60;96.90;;;;;;5025077;28;20136;-71
2024/01/18 09:54:11;;;;;;;0.95;0.80;;;-1.60;97.00;;;;;;5059357;28;20129;-73
2024/01/18 09:56:43;;;;;;;0.40;0.40;;;-1.60;96.70;;;;;;5036256;28;20063;-74
2024/01/18 09:59:14;;;;;;;0.40;0.40;;;-1.40;96.70;;;;;;5067945;28;20150;-72
2024/01/18 10:01:39;;;;;;;0.32;0.32;;;-1.40;96.70;;;;;;5070026;28;20037;-72
2024/01/18 10:04:07;;;;;;;0.32;0.32;;;-1.30;96.60;;;;;;5072588;28;20058;-75
2024/01/18 10:06:33;;;;;;;0.50;0.50;;;-1.20;96.70;;;;;;5072399;28;20032;-73
2024/01/18 10:08:58;;;;;;;1.27;0.95;;;-1.10;96.20;;;;;;5075097;28;20451;-71
2024/01/18 10:11:24;;;;;;;0.85;0.75;;;-1.00;96.30;;;;;;5065953;28;20033;-72
2024/01/18 10:13:51;;;;;;;2.30;1.70;;;-0.90;96.20;;;;;;5062575;28;20032;-71
2024/01/18 10:16:27;;;;;;;0.70;0.70;;;-0.90;96.00;;;;;;5068890;28;20090;-74
2024/01/18 10:18:55;;;;;;;2.17;1.33;;;-0.80;95.80;;;;;;5058735;28;20081;-72
2024/01/18 10:21:22;;;;;;;0.70;0.70;;;-0.70;95.60;;;;;;5069029;28;20028;-71
2024/01/18 10:23:48;;;;;;;0.85;0.77;;;-0.60;95.60;;;;;;5069772;28;20047;-72
2024/01/18 10:26:15;;;;;;;1.67;1.58;;;-0.60;95.30;;;;;;5056648;28;20040;-72
2024/01/18 10:28:41;;;;;;;1.58;1.48;;;-0.60;95.50;;;;;;5073585;28;20028;-72
2024/01/18 10:31:08;;;;;;;0.80;0.47;;;-0.50;95.30;;;;;;5069744;28;20511;-72
2024/01/18 10:33:33;;;;;;;2.05;1.88;;;-0.40;95.30;;;;;;5066455;28;20036;-72
2024/01/18 10:36:00;;;;;;;0.85;0.38;;;-0.40;95.10;;;;;;5076028;28;20054;-72
2024/01/18 10:38:29;;;;;;;0.52;0.50;;;-0.30;94.50;;;;;;5074115;28;20054;-72
2024/01/18 10:40:58;;;;;;;0.80;0.57;;;-0.20;94.70;;;;;;5072398;28;20036;-72
2024/01/18 10:43:30;;;;;;;2.15;1.38;;;-0.10;94.20;;;;;;5066219;28;20560;-71
2024/01/18 10:45:57;;;;;;;0.88;0.88;;;-0.10;94.20;;;;;;5060255;28;21531;-72
2024/01/18 10:48:22;;;;;;;0.95;0.70;;;0.00;94.30;;;;;;5067513;28;20028;-71
2024/01/18 10:50:52;;;;;;;2.58;0.45;;;0.20;94.10;;;;;;5069045;28;20081;-72
2024/01/18 10:53:19;;;;;;;0.60;0.60;;;0.10;94.20;;;;;;5069279;28;20159;-72
2024/01/18 10:55:45;;;;;;;0.75;0.75;;;0.30;93.30;;;;;;5074590;28;20131;-72
2024/01/18 10:58:11;;;;;;;0.80;0.77;;;0.30;93.20;;;;;;5069586;28;20771;-71
2024/01/18 11:00:37;;;;;;;1.77;0.88;;;0.30;93.20;;;;;;5076455;28;20062;-73
2024/01/18 11:03:03;;;;;;;1.00;0.90;;;0.30;93.30;;;;;;5077539;28;20392;-73
2024/01/18 11:05:30;;;;;;;1.67;1.25;;;0.40;93.20;;;;;;5079887;28;20123;-72
2024/01/18 11:07:57;;;;;;;0.70;0.68;;;0.50;93.20;;;;;;5076090;28;20133;-72
2024/01/18 11:10:23;;;;;;;0.60;0.50;;;0.60;93.50;;;;;;5070420;28;20071;-73
2024/01/18 11:12:49;;;;;;;1.77;1.13;;;0.60;93.50;;;;;;5066042;28;21588;-72
2024/01/18 11:15:16;;;;;;;3.40;1.55;;;0.60;93.60;;;;;;5074681;28;20643;-74
2024/01/18 11:17:45;;;;;;;1.10;0.90;;;0.70;93.80;;;;;;5076736;28;20028;-73
2024/01/18 11:20:11;;;;;;;1.80;1.08;;;0.80;93.90;;;;;;5074462;28;20097;-74
2024/01/18 11:22:39;;;;;;;0.85;0.85;;;0.80;94.00;;;;;;5085286;28;20032;-73
2024/01/18 11:25:07;;;;;;;1.67;0.98;;;0.90;93.90;;;;;;5080598;28;20040;-74
2024/01/18 11:27:41;;;;;;;0.88;0.80;;;1.00;93.70;;;;;;5076350;28;20044;-73
2024/01/18 11:30:11;;;;;;;2.70;1.25;;;1.10;93.70;;;;;;5104698;28;20115;-72
2024/01/18 11:32:37;;;;;;;2.35;1.38;;;1.20;93.70;;;;;;5080956;28;20085;-72
2024/01/18 11:35:12;;;;;;;3.00;0.95;;;1.20;93.40;;;;;;5081121;28;20104;-72
2024/01/18 11:37:38;;;;;;;0.50;0.50;;;1.30;93.50;;;;;;5081512;28;20721;-73
2024/01/18 11:40:07;;;;;;;3.42;2.55;;;1.30;93.70;;;;;;5074501;28;20040;-73
2024/01/18 11:42:33;;;;;;;;;;;1.40;93.30;;;;;;5076689;28;20042;-73
2024/01/18 11:45:01;;;;;;;1.25;1.15;;;1.40;93.50;;;;;;5076114;28;19920;-72
2024/01/18 11:47:29;;;;;;;8.85;1.10;;;1.50;93.60;;;;;;5075340;28;20040;-73
2024/01/18 11:49:55;;;;;;;1.40;1.30;;;1.50;93.30;;;;;;5078071;28;20130;-72
2024/01/18 11:52:22;;;;;;;2.15;1.20;;;1.50;93.70;;;;;;5073256;28;20043;-72
2024/01/18 11:54:53;;;;;;;0.88;0.85;;;1.60;93.50;;;;;;5072310;28;20032;-71
2024/01/18 11:57:19;;;;;;;1.10;1.00;;;1.70;93.20;;;;;;5076421;28;20561;-73
2024/01/18 11:59:46;;;;;;;1.48;1.38;;;1.80;93.10;;;;;;5071681;28;20101;-73
2024/01/18 12:02:12;;;;;;;0.35;0.35;;;1.80;92.80;;;;;;5072527;28;20048;-72
2024/01/18 12:04:38;;;;;;;1.30;1.20;;;1.80;92.60;;;;;;5075395;28;20106;-73
2024/01/18 12:07:06;;;;;;;0.80;0.80;;;1.80;92.70;;;;;;5074225;28;20268;-73
2024/01/18 12:09:32;;;;;;;3.83;1.70;;;1.90;92.40;;;;;;5064957;28;20032;-70
2024/01/18 12:11:59;;;;;;;2.25;1.05;;;1.90;92.30;;;;;;5072096;28;20032;-71
2024/01/18 12:14:25;;;;;;;2.65;1.35;;;2.00;92.10;;;;;;5067859;28;20036;-73
2024/01/18 12:16:51;;;;;;;2.10;1.15;;;2.10;91.90;;;;;;5068007;28;20032;-72
2024/01/18 12:19:34;;;;;;;0.88;0.77;;;2.10;92.10;;;;;;5067217;28;20055;-73
2024/01/18 12:22:01;;;;;;;1.25;1.13;;;2.10;92.10;;;;;;5074519;28;21542;-72
2024/01/18 12:24:27;;;;;;;1.33;0.98;;;2.10;92.00;;;;;;5076383;28;20047;-73
2024/01/18 12:26:53;;;;;;;1.42;1.20;;;2.20;91.70;;;;;;5068390;28;20431;-72
2024/01/18 12:29:20;;;;;;;0.90;0.70;;;2.30;91.70;;;;;;5074741;28;20511;-74
2024/01/18 12:31:46;;;;;;;0.63;0.63;;;2.40;91.30;;;;;;5071470;28;20064;-72
2024/01/18 12:34:12;;;;;;;3.90;1.77;;;2.50;91.00;;;;;;5072534;28;20036;-72
2024/01/18 12:36:39;;;;;;;3.10;1.13;;;2.60;90.70;;;;;;5083067;28;20496;-70
2024/01/18 12:39:05;;;;;;;1.45;1.30;;;2.60;90.50;;;;;;5073645;28;20905;-70
2024/01/18 12:41:31;;;;;;;1.48;1.02;;;2.70;90.10;;;;;;5072672;28;20794;-71
2024/01/18 12:44:12;;;;;;;1.67;1.15;;;2.70;90.40;;;;;;5070240;28;20043;-70
2024/01/18 12:46:40;;;;;;;5.72;2.17;;;2.70;90.60;;;;;;5071237;28;20521;-73